sensor_id;sensor_type;location;lat;lon;timestamp;pressure;altitude;pressure_sealevel;temperature;humidity
29239;BME280;16267;48.194;11.546;2023-08-21T00:01:45;96460.81;;;25.29;59.58
29239;BME280;16267;48.194;11.546;2023-08-21T00:04:11;96460.31;;;25.25;59.52
29239;BME280;16267;48.194;11.546;2023-08-21T00:06:37;96457.28;;;25.23;59.32
29239;BME280;16267;48.194;11.546;2023-08-21T00:09:02;96451.50;;;25.21;58.80
29239;BME280;16267;48.194;11.546;2023-08-21T00:11:28;96457.97;;;25.18;59.38
29239;BME280;16267;48.194;11.546;2023-08-21T00:13:54;96452.72;;;25.14;59.70
29239;BME280;16267;48.194;11.546;2023-08-21T00:16:20;96463.13;;;25.10;60.29
29239;BME280;16267;48.194;11.546;2023-08-21T00:18:46;96444.13;;;25.07;60.69
29239;BME280;16267;48.194;11.546;2023-08-21T00:21:12;96451.84;;;25.03;60.05
29239;BME280;16267;48.194;11.546;2023-08-21T00:23:38;96451.28;;;24.99;60.46
29239;BME280;16267;48.194;11.546;2023-08-21T00:26:04;96458.44;;;24.90;60.98
29239;BME280;16267;48.194;11.546;2023-08-21T00:28:30;96456.41;;;24.85;61.63
29239;BME280;16267;48.194;11.546;2023-08-21T00:31:03;96457.09;;;24.80;61.77
29239;BME280;16267;48.194;11.546;2023-08-21T00:33:31;96448.78;;;24.75;61.96
29239;BME280;16267;48.194;11.546;2023-08-21T00:35:57;96446.78;;;24.69;62.09
29239;BME280;16267;48.194;11.546;2023-08-21T00:38:24;96448.97;;;24.65;62.27
29239;BME280;16267;48.194;11.546;2023-08-21T00:40:50;96439.91;;;24.59;62.82
29239;BME280;16267;48.194;11.546;2023-08-21T00:43:16;96442.59;;;24.54;62.74
29239;BME280;16267;48.194;11.546;2023-08-21T00:45:45;96443.28;;;24.48;63.03
29239;BME280;16267;48.194;11.546;2023-08-21T00:48:13;96438.47;;;24.43;63.06
29239;BME280;16267;48.194;11.546;2023-08-21T00:50:40;96437.91;;;24.39;63.46
29239;BME280;16267;48.194;11.546;2023-08-21T00:53:06;96442.84;;;24.35;63.39
29239;BME280;16267;48.194;11.546;2023-08-21T00:55:32;96446.84;;;24.34;62.46
29239;BME280;16267;48.194;11.546;2023-08-21T00:58:00;96446.09;;;24.34;61.98
29239;BME280;16267;48.194;11.546;2023-08-21T01:00:29;96447.31;;;24.33;61.84
29239;BME280;16267;48.194;11.546;2023-08-21T01:02:55;96447.31;;;24.33;62.14
29239;BME280;16267;48.194;11.546;2023-08-21T01:05:22;96448.53;;;24.32;62.88
29239;BME280;16267;48.194;11.546;2023-08-21T01:08:21;96447.97;;;24.27;63.52
29239;BME280;16267;48.194;11.546;2023-08-21T01:16:28;96444.34;;;24.16;64.58
29239;BME280;16267;48.194;11.546;2023-08-21T01:18:55;96446.81;;;24.14;64.45
29239;BME280;16267;48.194;11.546;2023-08-21T01:21:22;96443.81;;;24.12;64.75
29239;BME280;16267;48.194;11.546;2023-08-21T01:23:49;96444.78;;;24.09;64.89
29239;BME280;16267;48.194;11.546;2023-08-21T01:26:14;96443.75;;;24.06;65.26
29239;BME280;16267;48.194;11.546;2023-08-21T01:28:40;96445.91;;;24.02;65.17
29239;BME280;16267;48.194;11.546;2023-08-21T01:31:24;96437.44;;;24.00;64.82
29239;BME280;16267;48.194;11.546;2023-08-21T01:34:00;96441.13;;;23.97;65.42
29239;BME280;16267;48.194;11.546;2023-08-21T01:36:28;96436.13;;;23.95;65.33
29239;BME280;16267;48.194;11.546;2023-08-21T01:38:54;96436.13;;;23.95;64.84
29239;BME280;16267;48.194;11.546;2023-08-21T01:41:26;96443.31;;;23.93;64.07
29239;BME280;16267;48.194;11.546;2023-08-21T01:43:52;96449.53;;;23.93;63.67
29239;BME280;16267;48.194;11.546;2023-08-21T01:46:17;96446.06;;;23.93;63.50
29239;BME280;16267;48.194;11.546;2023-08-21T01:48:43;96454.00;;;23.91;63.39
29239;BME280;16267;48.194;11.546;2023-08-21T01:51:09;96456.00;;;23.90;63.66
29239;BME280;16267;48.194;11.546;2023-08-21T01:53:35;96449.00;;;23.89;63.56
29239;BME280;16267;48.194;11.546;2023-08-21T01:56:00;96453.72;;;23.89;63.52
29239;BME280;16267;48.194;11.546;2023-08-21T01:58:26;96451.47;;;23.87;63.35
29239;BME280;16267;48.194;11.546;2023-08-21T02:00:52;96448.44;;;23.85;63.35
29239;BME280;16267;48.194;11.546;2023-08-21T02:03:18;96457.16;;;23.84;63.46
29239;BME280;16267;48.194;11.546;2023-08-21T02:05:43;96448.66;;;23.81;63.12
29239;BME280;16267;48.194;11.546;2023-08-21T02:08:13;96458.56;;;23.79;62.97
29239;BME280;16267;48.194;11.546;2023-08-21T02:10:51;96452.81;;;23.77;62.93
29239;BME280;16267;48.194;11.546;2023-08-21T02:13:18;96451.31;;;23.76;63.22
29239;BME280;16267;48.194;11.546;2023-08-21T02:23:12;96452.25;;;23.58;64.71
29239;BME280;16267;48.194;11.546;2023-08-21T02:25:38;96448.97;;;23.54;64.66
29239;BME280;16267;48.194;11.546;2023-08-21T02:28:04;96450.66;;;23.51;64.88
29239;BME280;16267;48.194;11.546;2023-08-21T02:30:30;96448.13;;;23.48;65.28
29239;BME280;16267;48.194;11.546;2023-08-21T02:32:56;96446.34;;;23.45;64.57
29239;BME280;16267;48.194;11.546;2023-08-21T02:35:21;96455.00;;;23.43;64.14
29239;BME280;16267;48.194;11.546;2023-08-21T03:03:36;96461.44;;;23.10;66.05
29239;BME280;16267;48.194;11.546;2023-08-21T03:06:02;96466.38;;;23.06;66.33
29239;BME280;16267;48.194;11.546;2023-08-21T03:08:28;96461.25;;;22.99;66.75
29239;BME280;16267;48.194;11.546;2023-08-21T03:10:54;96468.41;;;22.97;66.83
29239;BME280;16267;48.194;11.546;2023-08-21T03:13:19;96470.56;;;22.92;66.78
29239;BME280;16267;48.194;11.546;2023-08-21T03:15:45;96475.75;;;22.90;66.78
29239;BME280;16267;48.194;11.546;2023-08-21T03:18:11;96478.94;;;22.89;66.36
29239;BME280;16267;48.194;11.546;2023-08-21T03:20:37;96476.69;;;22.87;66.05
29239;BME280;16267;48.194;11.546;2023-08-21T03:23:03;96477.16;;;22.86;65.60
29239;BME280;16267;48.194;11.546;2023-08-21T03:25:28;96483.13;;;22.84;65.81
29239;BME280;16267;48.194;11.546;2023-08-21T03:27:54;96476.59;;;22.82;66.48
29239;BME280;16267;48.194;11.546;2023-08-21T03:30:20;96478.28;;;22.79;66.72
29239;BME280;16267;48.194;11.546;2023-08-21T03:32:47;96477.69;;;22.75;66.88
29239;BME280;16267;48.194;11.546;2023-08-21T03:35:12;96479.88;;;22.71;67.10
29239;BME280;16267;48.194;11.546;2023-08-21T03:37:38;96478.53;;;22.66;67.62
29239;BME280;16267;48.194;11.546;2023-08-21T03:40:04;96484.19;;;22.63;67.77
29239;BME280;16267;48.194;11.546;2023-08-21T03:42:30;96486.81;;;22.57;68.08
29239;BME280;16267;48.194;11.546;2023-08-21T03:44:56;96481.25;;;22.52;68.15
29239;BME280;16267;48.194;11.546;2023-08-21T03:47:22;96477.47;;;22.49;68.38
29239;BME280;16267;48.194;11.546;2023-08-21T03:49:47;96488.59;;;22.45;68.65
29239;BME280;16267;48.194;11.546;2023-08-21T03:52:16;96481.47;;;22.39;68.63
29239;BME280;16267;48.194;11.546;2023-08-21T03:54:42;96480.91;;;22.35;69.13
29239;BME280;16267;48.194;11.546;2023-08-21T03:57:07;96491.25;;;22.31;69.29
29239;BME280;16267;48.194;11.546;2023-08-21T03:59:33;96489.44;;;22.27;69.51
29239;BME280;16267;48.194;11.546;2023-08-21T04:01:59;96488.13;;;22.23;69.45
29239;BME280;16267;48.194;11.546;2023-08-21T04:04:25;96492.53;;;22.20;69.96
29239;BME280;16267;48.194;11.546;2023-08-21T04:06:50;96493.44;;;22.17;70.12
29239;BME280;16267;48.194;11.546;2023-08-21T04:09:16;96488.44;;;22.16;70.41
29239;BME280;16267;48.194;11.546;2023-08-21T04:11:42;96486.63;;;22.13;70.83
29239;BME280;16267;48.194;11.546;2023-08-21T04:14:07;96488.31;;;22.10;71.34
29239;BME280;16267;48.194;11.546;2023-08-21T04:18:59;96479.53;;;22.06;70.72
29239;BME280;16267;48.194;11.546;2023-08-21T04:21:24;96485.47;;;22.04;71.30
29239;BME280;16267;48.194;11.546;2023-08-21T04:23:50;96485.47;;;22.04;70.55
29239;BME280;16267;48.194;11.546;2023-08-21T04:26:16;96480.00;;;22.04;71.05
29239;BME280;16267;48.194;11.546;2023-08-21T04:28:41;96481.22;;;22.03;71.05
29239;BME280;16267;48.194;11.546;2023-08-21T04:31:07;96487.63;;;22.00;71.16
29239;BME280;16267;48.194;11.546;2023-08-21T04:33:34;96480.31;;;21.97;71.61
29239;BME280;16267;48.194;11.546;2023-08-21T04:36:00;96488.25;;;21.95;71.95
29239;BME280;16267;48.194;11.546;2023-08-21T04:38:26;96484.00;;;21.94;72.29
29239;BME280;16267;48.194;11.546;2023-08-21T04:40:52;96489.63;;;21.91;72.48
29239;BME280;16267;48.194;11.546;2023-08-21T04:43:17;96489.34;;;21.89;72.46
29239;BME280;16267;48.194;11.546;2023-08-21T04:45:51;96494.03;;;21.88;72.57
29239;BME280;16267;48.194;11.546;2023-08-21T04:48:18;96500.00;;;21.87;72.26
29239;BME280;16267;48.194;11.546;2023-08-21T04:50:45;96496.47;;;21.86;71.88
29239;BME280;16267;48.194;11.546;2023-08-21T04:53:12;96498.00;;;21.87;71.46
29239;BME280;16267;48.194;11.546;2023-08-21T04:55:39;96498.00;;;21.87;72.05
29239;BME280;16267;48.194;11.546;2023-08-21T04:58:07;96494.53;;;21.87;72.51
29239;BME280;16267;48.194;11.546;2023-08-21T05:00:33;96496.47;;;21.86;73.06
29239;BME280;16267;48.194;11.546;2023-08-21T05:02:59;96495.72;;;21.86;73.94
29239;BME280;16267;48.194;11.546;2023-08-21T05:05:25;96496.47;;;21.86;72.86
29239;BME280;16267;48.194;11.546;2023-08-21T05:07:52;96498.75;;;21.88;72.32
29239;BME280;16267;48.194;11.546;2023-08-21T05:10:18;96499.06;;;21.90;73.45
29239;BME280;16267;48.194;11.546;2023-08-21T05:12:45;96496.78;;;21.88;73.65
29239;BME280;16267;48.194;11.546;2023-08-21T05:15:11;96504.53;;;21.90;74.45
29239;BME280;16267;48.194;11.546;2023-08-21T05:17:37;96501.31;;;21.91;74.91
29239;BME280;16267;48.194;11.546;2023-08-21T05:20:03;96507.53;;;21.92;75.17
29239;BME280;16267;48.194;11.546;2023-08-21T05:22:29;96498.88;;;21.93;76.04
29239;BME280;16267;48.194;11.546;2023-08-21T05:24:55;96507.38;;;21.95;74.75
29239;BME280;16267;48.194;11.546;2023-08-21T05:27:21;96510.38;;;21.97;75.73
29239;BME280;16267;48.194;11.546;2023-08-21T05:29:46;96507.50;;;22.01;76.67
29239;BME280;16267;48.194;11.546;2023-08-21T05:32:12;96509.31;;;22.04;76.93
29239;BME280;16267;48.194;11.546;2023-08-21T05:34:39;96508.38;;;22.07;76.97
29239;BME280;16267;48.194;11.546;2023-08-21T05:37:04;96503.47;;;22.11;77.36
29239;BME280;16267;48.194;11.546;2023-08-21T05:39:30;96505.78;;;22.13;76.39
29239;BME280;16267;48.194;11.546;2023-08-21T05:41:56;96514.53;;;22.17;75.44
29239;BME280;16267;48.194;11.546;2023-08-21T05:44:21;96513.94;;;22.22;76.93
29239;BME280;16267;48.194;11.546;2023-08-21T05:46:47;96513.78;;;22.25;76.64
29239;BME280;16267;48.194;11.546;2023-08-21T05:49:13;96519.81;;;22.30;76.52
29239;BME280;16267;48.194;11.546;2023-08-21T05:51:39;96522.69;;;22.35;76.30
29239;BME280;16267;48.194;11.546;2023-08-21T05:54:04;96524.47;;;22.38;77.59
29239;BME280;16267;48.194;11.546;2023-08-21T05:56:30;96523.09;;;22.43;77.35
29239;BME280;16267;48.194;11.546;2023-08-21T05:58:56;96525.19;;;22.48;78.13
29239;BME280;16267;48.194;11.546;2023-08-21T06:01:21;96519.84;;;22.54;77.05
29239;BME280;16267;48.194;11.546;2023-08-21T06:03:47;96521.94;;;22.59;76.96
29239;BME280;16267;48.194;11.546;2023-08-21T06:06:13;96518.81;;;22.66;75.68
29239;BME280;16267;48.194;11.546;2023-08-21T06:08:39;96519.41;;;22.70;74.81
29239;BME280;16267;48.194;11.546;2023-08-21T06:11:04;96518.28;;;22.77;75.97
29239;BME280;16267;48.194;11.546;2023-08-21T06:13:30;96527.84;;;22.81;76.86
29239;BME280;16267;48.194;11.546;2023-08-21T06:15:56;96525.22;;;22.87;77.41
29239;BME280;16267;48.194;11.546;2023-08-21T06:18:22;96531.25;;;22.91;76.92
29239;BME280;16267;48.194;11.546;2023-08-21T06:20:49;96522.41;;;22.96;76.13
29239;BME280;16267;48.194;11.546;2023-08-21T06:23:20;96531.78;;;23.04;76.17
29239;BME280;16267;48.194;11.546;2023-08-21T06:25:48;96533.88;;;23.09;76.80
29239;BME280;16267;48.194;11.546;2023-08-21T06:28:14;96532.72;;;23.16;76.09
29239;BME280;16267;48.194;11.546;2023-08-21T06:30:40;96538.78;;;23.20;75.30
29239;BME280;16267;48.194;11.546;2023-08-21T06:33:06;96538.41;;;23.27;74.91
29239;BME280;16267;48.194;11.546;2023-08-21T06:35:32;96533.03;;;23.33;74.75
29239;BME280;16267;48.194;11.546;2023-08-21T06:37:57;96534.34;;;23.37;74.47
29239;BME280;16267;48.194;11.546;2023-08-21T06:40:23;96537.94;;;23.44;74.55
29239;BME280;16267;48.194;11.546;2023-08-21T06:42:49;96536.03;;;23.50;74.47
29239;BME280;16267;48.194;11.546;2023-08-21T06:45:16;96533.88;;;23.54;74.34
29239;BME280;16267;48.194;11.546;2023-08-21T06:47:43;96535.97;;;23.59;74.44
29239;BME280;16267;48.194;11.546;2023-08-21T06:50:09;96537.28;;;23.64;72.68
29239;BME280;16267;48.194;11.546;2023-08-21T06:52:35;96536.59;;;23.69;73.09
29239;BME280;16267;48.194;11.546;2023-08-21T06:55:01;96531.53;;;23.76;72.65
29239;BME280;16267;48.194;11.546;2023-08-21T06:57:27;96529.63;;;23.82;72.60
29239;BME280;16267;48.194;11.546;2023-08-21T06:59:53;96535.94;;;23.89;72.76
29239;BME280;16267;48.194;11.546;2023-08-21T07:02:19;96536.81;;;23.95;71.77
29239;BME280;16267;48.194;11.546;2023-08-21T07:04:45;96536.41;;;24.02;71.54
29239;BME280;16267;48.194;11.546;2023-08-21T07:07:11;96530.72;;;24.06;70.92
29239;BME280;16267;48.194;11.546;2023-08-21T07:09:37;96535.34;;;24.14;71.28
29239;BME280;16267;48.194;11.546;2023-08-21T07:12:03;96534.19;;;24.21;70.71
29239;BME280;16267;48.194;11.546;2023-08-21T07:14:29;96530.28;;;24.27;69.98
29239;BME280;16267;48.194;11.546;2023-08-21T07:16:54;96537.63;;;24.36;70.37
29239;BME280;16267;48.194;11.546;2023-08-21T07:19:20;96541.22;;;24.42;69.67
29239;BME280;16267;48.194;11.546;2023-08-21T07:21:46;96534.09;;;24.51;69.41
29239;BME280;16267;48.194;11.546;2023-08-21T07:24:12;96543.44;;;24.59;69.17
29239;BME280;16267;48.194;11.546;2023-08-21T07:26:37;96534.78;;;24.66;68.79
29239;BME280;16267;48.194;11.546;2023-08-21T07:29:03;96536.63;;;24.75;68.42
29239;BME280;16267;48.194;11.546;2023-08-21T07:31:30;96534.97;;;24.83;68.27
29239;BME280;16267;48.194;11.546;2023-08-21T07:33:56;96536.84;;;24.91;68.85
29239;BME280;16267;48.194;11.546;2023-08-21T07:36:22;96535.38;;;24.96;68.42
29239;BME280;16267;48.194;11.546;2023-08-21T07:38:49;96536.19;;;25.02;66.93
29239;BME280;16267;48.194;11.546;2023-08-21T07:41:14;96529.81;;;25.11;66.67
29239;BME280;16267;48.194;11.546;2023-08-21T07:43:42;96539.16;;;25.19;66.67
29239;BME280;16267;48.194;11.546;2023-08-21T07:46:11;96539.47;;;25.27;66.14
29239;BME280;16267;48.194;11.546;2023-08-21T07:48:47;96537.81;;;25.35;65.25
29239;BME280;16267;48.194;11.546;2023-08-21T07:51:13;96531.38;;;25.44;65.14
29239;BME280;16267;48.194;11.546;2023-08-21T07:53:39;96530.94;;;25.51;65.39
29239;BME280;16267;48.194;11.546;2023-08-21T07:56:05;96530.53;;;25.58;62.81
29239;BME280;16267;48.194;11.546;2023-08-21T07:58:32;96532.06;;;25.65;63.20
29239;BME280;16267;48.194;11.546;2023-08-21T08:00:58;96535.88;;;25.73;63.82
29239;BME280;16267;48.194;11.546;2023-08-21T08:03:24;96534.94;;;25.81;63.00
29239;BME280;16267;48.194;11.546;2023-08-21T08:05:50;96531.78;;;25.89;62.56
29239;BME280;16267;48.194;11.546;2023-08-21T08:08:17;96529.31;;;25.96;62.50
29239;BME280;16267;48.194;11.546;2023-08-21T08:10:43;96536.16;;;26.07;62.28
29239;BME280;16267;48.194;11.546;2023-08-21T08:13:09;96536.47;;;26.14;61.67
29239;BME280;16267;48.194;11.546;2023-08-21T08:15:35;96532.28;;;26.24;61.60
29239;BME280;16267;48.194;11.546;2023-08-21T08:18:03;96532.53;;;26.32;61.82
29239;BME280;16267;48.194;11.546;2023-08-21T08:20:29;96529.59;;;26.41;61.28
29239;BME280;16267;48.194;11.546;2023-08-21T08:22:55;96538.13;;;26.49;60.71
29239;BME280;16267;48.194;11.546;2023-08-21T08:25:22;96534.94;;;26.56;61.72
29239;BME280;16267;48.194;11.546;2023-08-21T08:27:48;96531.22;;;26.65;61.40
29239;BME280;16267;48.194;11.546;2023-08-21T08:30:15;96535.28;;;26.75;60.02
29239;BME280;16267;48.194;11.546;2023-08-21T08:32:42;96531.81;;;26.86;58.90
29239;BME280;16267;48.194;11.546;2023-08-21T08:35:13;96535.09;;;26.96;58.75
29239;BME280;16267;48.194;11.546;2023-08-21T08:37:42;96539.13;;;27.06;58.85
29239;BME280;16267;48.194;11.546;2023-08-21T08:40:12;96529.88;;;27.14;58.02
29239;BME280;16267;48.194;11.546;2023-08-21T08:42:38;96534.69;;;27.25;57.26
29239;BME280;16267;48.194;11.546;2023-08-21T08:45:05;96536.47;;;27.34;57.87
29239;BME280;16267;48.194;11.546;2023-08-21T08:47:33;96527.94;;;27.43;54.59
29239;BME280;16267;48.194;11.546;2023-08-21T08:50:05;96529.69;;;27.52;53.19
29239;BME280;16267;48.194;11.546;2023-08-21T08:52:36;96535.47;;;27.59;50.97
29239;BME280;16267;48.194;11.546;2023-08-21T08:55:03;96534.47;;;27.68;51.00
29239;BME280;16267;48.194;11.546;2023-08-21T08:57:29;96536.47;;;27.73;51.55
29239;BME280;16267;48.194;11.546;2023-08-21T08:59:55;96537.03;;;27.83;51.60
29239;BME280;16267;48.194;11.546;2023-08-21T09:02:21;96535.75;;;27.95;51.61
29239;BME280;16267;48.194;11.546;2023-08-21T09:04:47;96537.50;;;28.04;51.02
29239;BME280;16267;48.194;11.546;2023-08-21T09:07:13;96538.47;;;28.12;48.81
29239;BME280;16267;48.194;11.546;2023-08-21T09:09:47;96538.47;;;28.18;48.28
29239;BME280;16267;48.194;11.546;2023-08-21T09:12:15;96535.94;;;28.25;48.82
29239;BME280;16267;48.194;11.546;2023-08-21T09:14:42;96539.69;;;28.34;49.32
29239;BME280;16267;48.194;11.546;2023-08-21T09:17:08;96535.44;;;28.44;49.23
29239;BME280;16267;48.194;11.546;2023-08-21T09:19:34;96536.91;;;28.51;48.27
29239;BME280;16267;48.194;11.546;2023-08-21T09:22:18;96527.59;;;28.59;49.89
29239;BME280;16267;48.194;11.546;2023-08-21T09:25:02;96531.56;;;28.69;47.92
29239;BME280;16267;48.194;11.546;2023-08-21T09:27:35;96534.78;;;28.79;47.24
29239;BME280;16267;48.194;11.546;2023-08-21T09:30:09;96531.75;;;28.88;47.75
29239;BME280;16267;48.194;11.546;2023-08-21T09:32:57;96537.75;;;28.92;46.59
29239;BME280;16267;48.194;11.546;2023-08-21T09:35:28;96537.22;;;29.00;45.49
29239;BME280;16267;48.194;11.546;2023-08-21T09:37:53;96532.94;;;29.04;44.93
29239;BME280;16267;48.194;11.546;2023-08-21T09:40:21;96536.19;;;29.08;45.70
29239;BME280;16267;48.194;11.546;2023-08-21T09:42:58;96533.91;;;29.12;45.96
29239;BME280;16267;48.194;11.546;2023-08-21T09:45:30;96531.09;;;29.18;46.15
29239;BME280;16267;48.194;11.546;2023-08-21T09:47:57;96535.59;;;29.27;45.53
29239;BME280;16267;48.194;11.546;2023-08-21T09:50:24;96530.25;;;29.34;44.92
29239;BME280;16267;48.194;11.546;2023-08-21T09:52:53;96518.41;;;29.40;44.74
29239;BME280;16267;48.194;11.546;2023-08-21T09:55:20;96517.91;;;29.41;42.90
29239;BME280;16267;48.194;11.546;2023-08-21T09:57:48;96512.06;;;29.45;40.60
29239;BME280;16267;48.194;11.546;2023-08-21T10:00:35;96517.06;;;29.52;40.49
29239;BME280;16267;48.194;11.546;2023-08-21T10:03:07;96515.75;;;29.58;40.64
29239;BME280;16267;48.194;11.546;2023-08-21T10:05:34;96510.69;;;29.68;40.56
29239;BME280;16267;48.194;11.546;2023-08-21T10:08:02;96514.59;;;29.78;39.11
29239;BME280;16267;48.194;11.546;2023-08-21T10:10:37;96512.75;;;29.87;39.63
29239;BME280;16267;48.194;11.546;2023-08-21T10:13:05;96507.41;;;29.94;39.43
29239;BME280;16267;48.194;11.546;2023-08-21T10:15:31;96506.09;;;30.01;40.25
29239;BME280;16267;48.194;11.546;2023-08-21T10:18:24;96501.25;;;30.07;41.15
29239;BME280;16267;48.194;11.546;2023-08-21T10:20:52;96506.22;;;30.14;41.19
29239;BME280;16267;48.194;11.546;2023-08-21T10:23:30;96499.38;;;30.21;40.08
29239;BME280;16267;48.194;11.546;2023-08-21T10:26:03;96499.31;;;30.27;39.28
29239;BME280;16267;48.194;11.546;2023-08-21T10:28:55;96496.25;;;30.30;39.57
29239;BME280;16267;48.194;11.546;2023-08-21T10:33:58;96498.91;;;30.41;39.93
29239;BME280;16267;48.194;11.546;2023-08-21T10:39:25;96498.25;;;30.54;39.73
29239;BME280;16267;48.194;11.546;2023-08-21T10:47:22;96497.28;;;30.71;39.03
29239;BME280;16267;48.194;11.546;2023-08-21T10:49:57;96501.50;;;30.77;38.93
29239;BME280;16267;48.194;11.546;2023-08-21T10:52:26;96494.09;;;30.85;38.33
29239;BME280;16267;48.194;11.546;2023-08-21T10:54:58;96501.06;;;30.92;38.49
29239;BME280;16267;48.194;11.546;2023-08-21T10:57:26;96498.22;;;30.98;37.37
29239;BME280;16267;48.194;11.546;2023-08-21T11:00:17;96502.19;;;31.02;36.26
29239;BME280;16267;48.194;11.546;2023-08-21T11:02:45;96505.63;;;31.08;37.02
29239;BME280;16267;48.194;11.546;2023-08-21T11:05:13;96502.78;;;31.14;37.77
29239;BME280;16267;48.194;11.546;2023-08-21T11:07:46;96513.25;;;31.21;37.09
29239;BME280;16267;48.194;11.546;2023-08-21T11:10:15;96504.13;;;31.26;36.28
29239;BME280;16267;48.194;11.546;2023-08-21T11:12:50;96506.81;;;31.32;36.12
29239;BME280;16267;48.194;11.546;2023-08-21T11:15:17;96507.25;;;31.36;36.88
29239;BME280;16267;48.194;11.546;2023-08-21T11:17:55;96507.19;;;31.42;37.34
29239;BME280;16267;48.194;11.546;2023-08-21T11:20:21;96507.09;;;31.47;37.77
29239;BME280;16267;48.194;11.546;2023-08-21T11:22:55;96504.97;;;31.53;38.66
29239;BME280;16267;48.194;11.546;2023-08-21T11:25:24;96509.41;;;31.62;38.85
29239;BME280;16267;48.194;11.546;2023-08-21T11:27:53;96502.47;;;31.69;38.79
29239;BME280;16267;48.194;11.546;2023-08-21T11:30:23;96504.06;;;31.77;38.73
29239;BME280;16267;48.194;11.546;2023-08-21T11:33:04;96495.88;;;31.85;38.44
29239;BME280;16267;48.194;11.546;2023-08-21T11:35:32;96502.56;;;31.95;39.22
29239;BME280;16267;48.194;11.546;2023-08-21T11:38:03;96495.59;;;32.02;37.67
29239;BME280;16267;48.194;11.546;2023-08-21T11:40:30;96503.00;;;32.13;38.05
29239;BME280;16267;48.194;11.546;2023-08-21T11:43:01;96488.25;;;32.18;37.54
29239;BME280;16267;48.194;11.546;2023-08-21T11:45:27;96500.75;;;32.25;37.60
29239;BME280;16267;48.194;11.546;2023-08-21T11:47:56;96497.84;;;32.30;36.19
29239;BME280;16267;48.194;11.546;2023-08-21T11:50:22;96490.16;;;32.36;36.13
29239;BME280;16267;48.194;11.546;2023-08-21T11:52:52;96494.88;;;32.41;36.37
29239;BME280;16267;48.194;11.546;2023-08-21T11:55:18;96491.00;;;32.44;36.17
29239;BME280;16267;48.194;11.546;2023-08-21T11:57:51;96488.47;;;32.47;35.42
29239;BME280;16267;48.194;11.546;2023-08-21T12:00:19;96485.59;;;32.52;36.00
29239;BME280;16267;48.194;11.546;2023-08-21T12:03:05;96486.00;;;32.56;36.39
29239;BME280;16267;48.194;11.546;2023-08-21T12:05:34;96484.94;;;32.59;35.68
29239;BME280;16267;48.194;11.546;2023-08-21T12:07:59;96482.91;;;32.60;35.09
29239;BME280;16267;48.194;11.546;2023-08-21T12:10:27;96481.84;;;32.63;35.68
29239;BME280;16267;48.194;11.546;2023-08-21T12:12:53;96483.88;;;32.62;35.43
29239;BME280;16267;48.194;11.546;2023-08-21T12:15:19;96483.53;;;32.66;35.18
29239;BME280;16267;48.194;11.546;2023-08-21T12:17:45;96481.50;;;32.66;34.68
29239;BME280;16267;48.194;11.546;2023-08-21T12:20:11;96474.88;;;32.70;34.66
29239;BME280;16267;48.194;11.546;2023-08-21T12:22:38;96469.53;;;32.72;35.02
29239;BME280;16267;48.194;11.546;2023-08-21T12:25:06;96475.47;;;32.76;36.03
29239;BME280;16267;48.194;11.546;2023-08-21T12:27:32;96470.38;;;32.80;36.78
29239;BME280;16267;48.194;11.546;2023-08-21T12:29:58;96470.75;;;32.84;36.79
29239;BME280;16267;48.194;11.546;2023-08-21T12:32:24;96462.44;;;32.84;36.27
29239;BME280;16267;48.194;11.546;2023-08-21T12:34:50;96465.97;;;32.84;35.79
29239;BME280;16267;48.194;11.546;2023-08-21T12:37:15;96462.84;;;32.88;35.90
29239;BME280;16267;48.194;11.546;2023-08-21T12:39:41;96456.75;;;32.89;35.66
29239;BME280;16267;48.194;11.546;2023-08-21T12:42:07;96456.97;;;32.92;35.03
29239;BME280;16267;48.194;11.546;2023-08-21T12:44:36;96460.47;;;32.92;35.29
29239;BME280;16267;48.194;11.546;2023-08-21T12:47:02;96454.59;;;32.96;35.27
29239;BME280;16267;48.194;11.546;2023-08-21T12:49:28;96453.53;;;32.99;35.32
29239;BME280;16267;48.194;11.546;2023-08-21T12:51:53;96449.13;;;33.03;35.73
29239;BME280;16267;48.194;11.546;2023-08-21T12:54:21;96453.63;;;33.06;36.06
29239;BME280;16267;48.194;11.546;2023-08-21T12:56:46;96452.88;;;33.06;34.89
29239;BME280;16267;48.194;11.546;2023-08-21T12:59:13;96451.78;;;33.09;35.47
29239;BME280;16267;48.194;11.546;2023-08-21T13:01:39;96451.47;;;33.13;35.35
29239;BME280;16267;48.194;11.546;2023-08-21T13:04:05;96445.16;;;33.12;35.00
29239;BME280;16267;48.194;11.546;2023-08-21T13:06:31;96444.94;;;33.10;35.33
29239;BME280;16267;48.194;11.546;2023-08-21T13:08:57;96445.16;;;33.12;35.71
29239;BME280;16267;48.194;11.546;2023-08-21T13:11:22;96439.19;;;33.08;35.27
29239;BME280;16267;48.194;11.546;2023-08-21T13:13:48;96438.66;;;33.09;35.05
29239;BME280;16267;48.194;11.546;2023-08-21T13:16:14;96444.59;;;33.14;36.39
29239;BME280;16267;48.194;11.546;2023-08-21T13:18:40;96443.53;;;33.17;35.72
29239;BME280;16267;48.194;11.546;2023-08-21T13:21:05;96438.91;;;33.19;35.56
29239;BME280;16267;48.194;11.546;2023-08-21T13:23:31;96443.94;;;33.21;35.44
29239;BME280;16267;48.194;11.546;2023-08-21T13:25:59;96431.72;;;33.24;35.72
29239;BME280;16267;48.194;11.546;2023-08-21T13:28:25;96433.41;;;33.27;35.80
29239;BME280;16267;48.194;11.546;2023-08-21T13:30:51;96426.03;;;33.29;35.06
29239;BME280;16267;48.194;11.546;2023-08-21T13:33:18;96429.75;;;33.32;36.25
29239;BME280;16267;48.194;11.546;2023-08-21T13:35:47;96426.25;;;33.31;35.32
29239;BME280;16267;48.194;11.546;2023-08-21T13:38:13;96423.84;;;33.36;35.54
29239;BME280;16267;48.194;11.546;2023-08-21T13:40:40;96421.50;;;33.40;35.26
29239;BME280;16267;48.194;11.546;2023-08-21T13:43:09;96418.34;;;33.43;35.29
29239;BME280;16267;48.194;11.546;2023-08-21T13:45:38;96422.09;;;33.46;35.13